Accueil
METAR-TAF:

METAR-TAF

Aéroports :

Base aérienne 123 Orléans-Bricy

Orléans, France

latitude: 47-59N, longitude: 001-45E, altitude: 126 m

Observation

Le bulletin a été fait il y a 39 minutes, à 20:00 UTC
Vent 5 kt de est/nord-est
Température 2°C
Humidité 93%
Pression 1007 hPa
Visibilité: 5000 m
brume

METAR: LFOJ 202000Z AUTO 07005KT 5000 BR NSC 02/01 Q1007

Heure: 21:39 (20:39 UTC)

Prévision

Le bulletin a été fait il y a 6 heures et 39 minutes, à 14:00 UTC
Prévision valable du 20 à 15 UTC au 21 à 15 UTC
Vent 10 kt de est
Visibilité 10 km ou plus
pas de nuages en-dessous de 1500 mètres et pas de cumulonimbus.
Temporairement
du 21 à 00 UTC au 21 à 07 UTC
Visibilité: 3000 m
brume
Probabilité 40%
du 21 à 02 UTC au 21 à 07 UTC
Visibilité: 0900 m
brouillard givrant

TAF: LFOJ 201400Z 2015/2115 10010KT CAVOK TEMPO 2100/2107 3000 BR PROB40 2102/2107 0900 FZFG VV///

Observations et prévisions météorologiques de plus de 4000 aéroports (messages METAR et TAF).

Les stations disponibles sont représentées par des disques jaunes et rouges sur la carte.

Passer la souris dessus pour voir le nom de la station.

Cliquer dessus pour voir les observations et prévisions météorologiques.

Pour changer de carte: cliquez sur les boutons verts avec une croix noire pour zoomer, sur le bouton vert avec un tiret pour effectuer un zoom arrière, ou sur les flèches vertes pour les cartes adjacentes.


METAR-TAF: